Derg — 9HOU9 — position and weather

sailwx.info

Track history (hours):
 
Tides and Currents Weather Stations Pressure Air Temp Water Temp Dewpoint Dewpoint Depression Visibility Wind Speed Wind Dir Waves Ship Positions

Derg

Last reported at 2018-Apr-18 00:42 UTC. Time now 2018-Apr-20 02:53 UTC.
Position N 33°43' W 012°16'.

Length 117 m; draft 6.5 m.

Type: Tanker. MMSI: 249293000.

Date/timePositionNaut miles runAvg speedWind from/ knotsBaromVisibWave heightAir tempDewpointWater temp
2018-Apr-18 00:42N 33°43' W 012°16'1613.8
2018-Apr-17 23:33N 33°49' W 011°59'113.5
2018-Apr-17 23:30N 33°50' W 011°58'35311.0
2018-Apr-16 15:19N 36°09' W 005°22'0 0.0
2018-Apr-16 15:00N 36°09' W 005°22'0 0.0
2018-Apr-16 14:28N 36°09' W 005°22'0 0.0
2018-Apr-16 13:59N 36°09' W 005°22'0 0.3
2018-Apr-16 13:30N 36°09' W 005°22'25912.1
2018-Apr-15 16:11N 36°46' W 000°04'213.2
2018-Apr-15 16:00N 36°46' W 000°01'713.0
2018-Apr-15 15:29N 36°48' E 000°08'1412.8
2018-Apr-15 14:22N 36°50' E 000°25'58112.8
2018-Apr-13 16:51N 37°07' E 012°33'410.9
2018-Apr-13 16:30N 37°05' E 012°37'713.2
2018-Apr-13 16:00N 37°03' E 012°45'715.0
2018-Apr-13 15:30N 37°00' E 012°53'712.5
2018-Apr-13 14:58N 36°58' E 013°01'714.0
2018-Apr-13 14:30N 36°56' E 013°09'714.1
2018-Apr-13 14:00N 36°54' E 013°17'3613.9
2018-Apr-13 11:24N 36°41' E 013°59'4612.6
2018-Apr-13 07:47N 36°25' E 014°53'310.1
2018-Apr-13 07:29N 36°24' E 014°56'  
2018-Apr-11 01:03N 39°46' E 025°47'1311.7
2018-Apr-10 23:57N 39°57' E 025°55'147 5.2
2018-Apr-09 19:53N 40°52' E 028°54'3 7.6
2018-Apr-09 19:30N 40°51' E 028°58'4 7.8
2018-Apr-09 19:00N 40°50' E 029°03'611.7
2018-Apr-09 18:30N 40°46' E 029°09'612.8
2018-Apr-09 18:00N 40°45' E 029°17'9 0.3
2018-Apr-08 12:42N 40°43' E 029°28'  
Track history (hours):
 
Tides and Currents Weather Stations Pressure Air Temp Water Temp Dewpoint Dewpoint Depression Visibility Wind Speed Wind Dir Waves Ship Positions

Derg

Last reported at 2018-Apr-18 00:42 UTC. Time now 2018-Apr-20 02:53 UTC.
Position N 33°43' W 012°16'.

Length 117 m; draft 6.5 m.

Type: Tanker. MMSI: 249293000.

Date/timePositionNaut miles runAvg speedWind from/ knotsBaromVisibWave heightAir tempDewpointWater temp
2018-Apr-18 00:42N 33°43' W 012°16'1613.8
2018-Apr-17 23:33N 33°49' W 011°59'113.5
2018-Apr-17 23:30N 33°50' W 011°58'35311.0
2018-Apr-16 15:19N 36°09' W 005°22'0 0.0
2018-Apr-16 15:00N 36°09' W 005°22'0 0.0
2018-Apr-16 14:28N 36°09' W 005°22'0 0.0
2018-Apr-16 13:59N 36°09' W 005°22'0 0.3
2018-Apr-16 13:30N 36°09' W 005°22'25912.1
2018-Apr-15 16:11N 36°46' W 000°04'213.2
2018-Apr-15 16:00N 36°46' W 000°01'713.0
2018-Apr-15 15:29N 36°48' E 000°08'1412.8
2018-Apr-15 14:22N 36°50' E 000°25'58112.8
2018-Apr-13 16:51N 37°07' E 012°33'410.9
2018-Apr-13 16:30N 37°05' E 012°37'713.2
2018-Apr-13 16:00N 37°03' E 012°45'715.0
2018-Apr-13 15:30N 37°00' E 012°53'712.5
2018-Apr-13 14:58N 36°58' E 013°01'714.0
2018-Apr-13 14:30N 36°56' E 013°09'714.1
2018-Apr-13 14:00N 36°54' E 013°17'3613.9
2018-Apr-13 11:24N 36°41' E 013°59'4612.6
2018-Apr-13 07:47N 36°25' E 014°53'310.1
2018-Apr-13 07:29N 36°24' E 014°56'  
2018-Apr-11 01:03N 39°46' E 025°47'1311.7
2018-Apr-10 23:57N 39°57' E 025°55'147 5.2
2018-Apr-09 19:53N 40°52' E 028°54'3 7.6
2018-Apr-09 19:30N 40°51' E 028°58'4 7.8
2018-Apr-09 19:00N 40°50' E 029°03'611.7
2018-Apr-09 18:30N 40°46' E 029°09'612.8
2018-Apr-09 18:00N 40°45' E 029°17'9 0.3
2018-Apr-08 12:42N 40°43' E 029°28'  

Dump ship's entire track history